Terminal Aerodrome Forecast
Issued by NWS Spokane, WA

Home | Current Version | Previous Version | Text Only | Print | Product List | Glossary On
Versions: 1 2 3 4 5 6 7 8 9 10 11 12 13 14 15 16 17 18 19 20 21 22 23 24 25 26 27 28 29 30 31 32 33 34 35
000
FTUS46 KOTX 221739
TAFLWS
TAF
KLWS 221739Z 2218/2318 27017G25KT P6SM VCSH BKN050 BKN090
     FM222000 27020G30KT P6SM SCT050 BKN070
     FM222300 26018G25KT P6SM SCT250
     FM230300 22007KT P6SM SKC=

USA.gov is the U.S. government's official web portal to all federal, state and local government web resources and services.